Time;durP1;ratioP1;P1;durP2;ratioP2;P2;SDS_P1;SDS_P2;PMS_P1;PMS_P2;Temp;Humidity;BMP_temperature;BMP_pressure;BME280_temperature;BME280_humidity;BME280_pressure;Samples;Min_cycle;Max_cycle;Signal;HPM_P1;HPM_P2
2021/09/10 00:01:03;;;;;;;;;;;;;;;;;;;;;
2021/09/10 00:04:39;;;;;;;5.97;3.47;;;;;;;15.18;66.91;92814.75;4808224;29;20047;-92
2021/09/10 00:07:19;;;;;;;5.70;2.75;;;;;;;15.40;66.93;92848.16;4801752;29;20069;-92
2021/09/10 00:10:31;;;;;;;8.27;3.53;;;;;;;15.07;67.45;92806.34;4805955;29;20104;-94
2021/09/10 00:13:56;;;;;;;;;;;;;;;;;;;;;
2021/09/10 00:17:02;;;;;;;;;;;;;;;;;;;;;
2021/09/10 00:19:51;;;;;;;6.95;3.70;;;;;;;15.17;66.76;92829.78;4817647;29;20145;-92
2021/09/10 00:22:46;;;;;;;5.13;2.88;;;;;;;15.22;66.98;92830.72;4811604;29;20109;-93
2021/09/10 00:25:32;;;;;;;5.53;3.50;;;;;;;15.18;67.59;92826.09;4824922;29;20841;-93
2021/09/10 00:32:50;;;;;;;;;;;;;;;;;;;;;
2021/09/10 00:35:27;;;;;;;4.63;2.67;;;;;;;14.89;67.56;92807.38;4793290;29;20079;-92
2021/09/10 00:38:52;;;;;;;4.70;3.03;;;;;;;15.02;68.00;92838.13;4822172;29;20440;-92
2021/09/10 00:42:00;;;;;;;7.45;3.17;;;;;;;14.75;67.70;92805.63;4805677;29;20051;-93
2021/09/10 00:48:20;;;;;;;5.53;3.30;;;;;;;14.99;67.50;92839.53;4803342;29;20047;-92
2021/09/10 00:51:29;;;;;;;3.97;2.42;;;;;;;14.67;67.12;92792.41;4832370;29;20071;-94
2021/09/10 00:54:44;;;;;;;;;;;;;;;;;;;;;
2021/09/10 00:58:03;;;;;;;;;;;;;;;;;;;;;
2021/09/10 01:04:36;;;;;;;6.20;2.80;;;;;;;15.06;66.99;92825.88;4798858;29;20142;-92
2021/09/10 01:11:12;;;;;;;5.07;3.33;;;;;;;14.75;67.01;92770.59;4806440;29;20517;-91
2021/09/10 01:14:54;;;;;;;;;;;;;;;;;;;;;
2021/09/10 01:18:26;;;;;;;6.18;3.42;;;;;;;14.86;66.91;92792.97;4795970;29;20092;-92
2021/09/10 01:21:15;;;;;;;7.32;2.80;;;;;;;15.04;67.28;92814.09;4792366;29;20430;-94
2021/09/10 01:25:00;;;;;;;;;;;;;;;;;;;;;
2021/09/10 01:28:15;;;;;;;4.78;2.97;;;;;;;14.90;66.79;92782.56;4786828;29;20081;-93
2021/09/10 01:31:15;;;;;;;5.38;2.75;;;;;;;15.25;66.40;92838.06;4820484;29;20115;-92
2021/09/10 01:34:05;;;;;;;;;;;;;;;15.28;66.57;92840.06;4812528;29;20050;-91
2021/09/10 01:37:10;;;;;;;;;;;;;;;;;;;;;
2021/09/10 01:40:24;;;;;;;9.30;3.33;;;;;;;15.11;66.36;92803.91;4814384;29;20089;-92
2021/09/10 01:50:29;;;;;;;5.93;3.10;;;;;;;15.15;66.94;92807.44;4805419;29;20059;-93
2021/09/10 01:53:52;;;;;;;5.25;2.92;;;;;;;15.39;66.80;92828.91;4813956;29;20054;-92
2021/09/10 01:57:03;;;;;;;;;;;;;;;;;;;;;
2021/09/10 02:00:07;;;;;;;5.78;3.40;;;;;;;15.19;66.38;92800.47;4794422;29;20136;-92
2021/09/10 02:06:25;;;;;;;6.50;3.85;;;;;;;15.23;66.63;92801.44;4798756;29;20050;-92
2021/09/10 02:12:31;;;;;;;5.28;3.03;;;;;;;15.42;66.58;92827.53;4812305;29;20446;-91
2021/09/10 02:16:04;;;;;;;5.63;2.70;;;;;;;15.15;66.39;92787.16;4822798;29;20492;-92
2021/09/10 02:19:12;;;;;;;;;;;;;;;;;;;;;
2021/09/10 02:22:24;;;;;;;5.63;3.20;;;;;;;15.22;66.69;92799.88;4822312;29;20077;-92
2021/09/10 02:25:33;;;;;;;;;;;;;;;;;;;;;
2021/09/10 02:28:54;;;;;;;5.37;3.17;;;;;;;15.37;67.05;92822.41;4804712;29;20062;-93
2021/09/10 02:32:17;;;;;;;5.32;3.03;;;;;;;15.53;67.24;92847.25;4811147;29;20776;-92
2021/09/10 02:38:52;;;;;;;3.88;2.42;;;;;;;15.23;67.49;92790.88;4816750;29;20062;-93
2021/09/10 02:42:05;;;;;;;;;;;;;;;;;;;;;
2021/09/10 02:45:24;;;;;;;4.60;2.80;;;;;;;15.55;68.04;92836.41;4823537;29;20158;-93
2021/09/10 02:51:55;;;;;;;7.93;3.25;;;;;;;15.53;67.95;92831.44;4810530;29;20060;-92
2021/09/10 02:55:07;;;;;;;5.95;3.63;;;;;;;15.18;67.78;92783.91;4801908;29;20125;-92
2021/09/10 02:58:23;;;;;;;;;;;;;;;;;;;;;
2021/09/10 03:02:04;;;;;;;;;;;;;;;;;;;;;
2021/09/10 03:04:51;;;;;;;4.85;3.05;;;;;;;15.50;67.82;92832.06;4838721;29;20098;-93
2021/09/10 03:14:38;;;;;;;6.45;3.67;;;;;;;15.36;68.13;92807.69;4835404;29;20114;-92
2021/09/10 03:21:35;;;;;;;4.70;2.97;;;;;;;15.46;68.33;92823.19;4838078;29;20068;-93
2021/09/10 03:25:07;;;;;;;6.70;3.40;;;;;;;15.48;68.04;92821.03;4843634;29;20156;-92
2021/09/10 03:28:18;;;;;;;6.80;3.40;;;;;;;15.25;67.82;92780.03;4844546;29;20054;-93
2021/09/10 03:31:30;;;;;;;4.68;2.97;;;;;;;15.42;67.78;92816.97;4829641;29;20497;-92
2021/09/10 03:35:00;;;;;;;4.68;2.95;;;;;;;15.30;67.63;92795.72;4843515;29;20057;-94
2021/09/10 03:37:42;;;;;;;4.72;3.28;;;;;;;15.32;67.43;92802.22;4834963;29;20053;-92
2021/09/10 03:40:56;;;;;;;5.05;3.45;;;;;;;15.22;67.32;92780.63;4830335;29;20145;-92
2021/09/10 03:44:03;;;;;;;6.05;3.08;;;;;;;15.14;67.28;92774.28;4826118;29;20428;-91
2021/09/10 03:47:04;;;;;;;5.60;3.10;;;;;;;15.13;67.04;92765.59;4836682;29;20405;-91
2021/09/10 03:56:43;;;;;;;4.22;2.95;;;;;;;15.17;67.50;92771.00;4825194;29;20506;-92
2021/09/10 03:59:43;;;;;;;;;;;;;;;;;;;;;
2021/09/10 04:03:03;;;;;;;;;;;;;;;;;;;;;
2021/09/10 04:06:14;;;;;;;6.20;3.15;;;;;;;15.09;67.57;92763.88;4813571;29;20039;-92
2021/09/10 04:09:24;;;;;;;3.80;2.65;;;;;;;15.31;67.48;92798.06;4826021;29;20058;-92
2021/09/10 04:12:53;;;;;;;7.82;3.92;;;;;;;15.23;67.79;92787.47;4824910;29;20051;-92
2021/09/10 04:19:42;;;;;;;5.68;3.20;;;;;;;15.40;67.91;92808.59;4807661;29;20075;-91
2021/09/10 04:22:48;;;;;;;;;;;;;;;;;;;;;
2021/09/10 04:25:48;;;;;;;;;;;;;;;;;;;;;
2021/09/10 04:29:14;;;;;;;;;;;;;;;;;;;;;
2021/09/10 04:32:32;;;;;;;4.40;2.80;;;;;;;15.17;67.89;92777.06;4797909;29;20074;-92
2021/09/10 04:35:00;;;;;;;10.27;4.10;;;;;;;15.04;68.09;92762.16;4781278;29;20058;-92
2021/09/10 04:40:36;;;;;;;6.15;2.83;;;;;;;15.11;67.93;92767.75;4799266;29;20054;-92
2021/09/10 04:47:13;;;;;;;4.65;3.03;;;;;;;15.08;68.19;92767.56;4808532;29;20414;-92
2021/09/10 04:56:30;;;;;;;;;;;;;;;;;;;;;
2021/09/10 04:59:53;;;;;;;8.52;3.80;;;;;;;14.95;68.72;92762.13;4808397;29;20058;-92
2021/09/10 05:02:48;;;;;;;;;;;;;;;;;;;;;
2021/09/10 05:05:34;;;;;;;5.38;2.95;;;;;;;15.38;68.67;92829.25;4829744;29;20061;-92
2021/09/10 05:08:28;;;;;;;6.00;3.70;;;;;;;15.16;68.90;92791.34;4843389;29;20049;-92
2021/09/10 05:11:18;;;;;;;8.35;3.90;;;;;;;15.07;69.34;92787.13;4830536;29;20041;-92
2021/09/10 05:14:24;;;;;;;;;;;;;;;;;;;;;
2021/09/10 05:17:15;;;;;;;;;;;;;;;;;;;;;
2021/09/10 05:20:14;;;;;;;5.95;3.50;;;;;;;15.20;69.79;92809.97;4826856;29;20057;-94
2021/09/10 05:26:29;;;;;;;4.95;3.03;;;;;;;15.45;69.83;92839.34;4823497;29;20065;-92
2021/09/10 05:32:26;;;;;;;5.60;2.90;;;;;;;15.43;69.93;92838.88;4870121;24;20079;-77
2021/09/10 05:34:52;;;;;;;4.70;2.80;;;;;;;15.44;69.85;92848.34;4852366;29;20129;-78
2021/09/10 05:37:18;;;;;;;6.72;3.83;;;;;;;15.45;69.67;92844.63;4855355;29;20038;-77
2021/09/10 05:39:43;;;;;;;6.15;3.20;;;;;;;15.46;69.72;92841.66;4861859;29;20141;-77
2021/09/10 05:42:11;;;;;;;8.75;3.58;;;;;;;15.48;70.35;92855.31;4845394;29;20046;-77
2021/09/10 05:44:37;;;;;;;6.10;3.13;;;;;;;15.52;70.24;92847.59;4841385;29;20394;-77
2021/09/10 05:47:03;;;;;;;5.32;3.13;;;;;;;15.55;70.21;92860.94;4841532;29;20089;-77
2021/09/10 05:49:29;;;;;;;10.88;4.53;;;;;;;15.60;70.19;92858.16;4826575;29;20524;-77
2021/09/10 05:51:55;;;;;;;5.25;3.28;;;;;;;15.64;70.55;92858.31;4842080;29;20038;-77
2021/09/10 05:54:40;;;;;;;5.68;3.30;;;;;;;15.70;70.46;92867.63;4841583;29;20067;-77
2021/09/10 05:57:06;;;;;;;5.30;3.65;;;;;;;15.77;70.37;92867.22;4841932;29;20066;-77
2021/09/10 05:59:32;;;;;;;6.22;3.42;;;;;;;15.82;70.74;92864.41;4843020;29;20046;-77
2021/09/10 06:02:00;;;;;;;7.00;3.38;;;;;;;15.87;70.70;92864.25;4832767;29;20038;-77
2021/09/10 06:04:26;;;;;;;8.88;3.25;;;;;;;15.91;70.19;92867.84;4791295;29;20049;-77
2021/09/10 06:06:51;;;;;;;5.72;3.10;;;;;;;15.95;70.59;92873.28;4823439;29;20050;-77
2021/09/10 06:12:47;;;;;;;5.85;3.72;;;;;;;16.05;70.17;92872.97;4825300;29;20050;-77
2021/09/10 06:15:13;;;;;;;11.73;3.63;;;;;;;16.07;70.19;92875.31;4823658;29;20058;-77
2021/09/10 06:17:58;;;;;;;8.07;3.95;;;;;;;16.11;70.35;92881.53;4824566;29;20046;-77
2021/09/10 06:20:23;;;;;;;5.97;3.25;;;;;;;16.14;70.72;92880.91;4823360;29;20047;-77
2021/09/10 06:22:49;;;;;;;11.05;4.07;;;;;;;16.18;70.56;92881.84;4814300;29;20050;-77
2021/09/10 06:28:49;;;;;;;5.82;3.55;;;;;;;16.24;70.31;92886.66;4838358;29;20073;-77
2021/09/10 06:44:59;;;;;;;8.60;3.80;;;;;;;16.36;71.18;92878.09;4844444;29;20064;-77
2021/09/10 06:47:25;;;;;;;7.70;3.92;;;;;;;16.40;70.64;92894.88;4860842;29;20041;-77
2021/09/10 06:49:50;;;;;;;6.63;3.97;;;;;;;16.41;69.93;92904.38;4846809;29;20050;-77
2021/09/10 06:52:17;;;;;;;7.40;3.67;;;;;;;16.43;69.86;92899.53;4825149;29;20175;-77
2021/09/10 06:54:43;;;;;;;7.35;4.15;;;;;;;16.47;70.60;92904.22;4842236;29;20073;-77
2021/09/10 06:57:08;;;;;;;7.55;3.97;;;;;;;16.44;70.40;92893.19;4842169;29;20158;-77
2021/09/10 06:59:34;;;;;;;7.35;3.83;;;;;;;16.53;70.07;92900.34;4842347;29;20046;-77
2021/09/10 07:02:00;;;;;;;6.07;3.88;;;;;;;16.57;70.30;92898.59;4829107;29;20124;-77
2021/09/10 07:04:44;;;;;;;9.98;3.88;;;;;;;16.63;70.46;92911.34;4860851;29;20053;-77
2021/09/10 07:07:10;;;;;;;7.20;4.60;;;;;;;16.65;71.10;92903.88;4841913;29;20056;-77
2021/09/10 07:09:38;;;;;;;7.93;4.30;;;;;;;16.68;71.32;92912.28;4810166;29;20045;-77
2021/09/10 07:12:04;;;;;;;7.28;3.67;;;;;;;16.71;71.07;92911.66;4841686;29;20517;-77
2021/09/10 07:14:30;;;;;;;8.13;3.25;;;;;;;16.72;70.87;92911.34;4842139;29;20136;-76
2021/09/10 07:17:34;;;;;;;5.97;3.83;;;;;;;16.72;71.13;92911.34;4851062;29;20045;-77
2021/09/10 07:20:00;;;;;;;6.43;3.60;;;;;;;16.71;70.36;92907.16;4842307;29;20412;-77
2021/09/10 07:23:05;;;;;;;8.10;4.28;;;;;;;16.70;69.52;92902.94;4832393;29;20045;-77
2021/09/10 07:25:31;;;;;;;6.13;3.38;;;;;;;16.69;68.04;92911.97;4843990;29;20077;-77
2021/09/10 07:27:56;;;;;;;7.47;4.07;;;;;;;16.70;68.43;92907.44;4828922;29;20061;-77
2021/09/10 07:31:00;;;;;;;6.78;3.67;;;;;;;16.71;70.45;92911.66;4828884;29;20141;-77
2021/09/10 07:33:26;;;;;;;6.90;3.92;;;;;;;16.68;71.23;92914.91;4826258;29;20046;-77
2021/09/10 07:35:52;;;;;;;8.50;4.15;;;;;;;16.67;71.00;92919.44;4842077;29;20519;-77
2021/09/10 07:41:39;;;;;;;6.63;3.78;;;;;;;16.67;71.09;92919.44;4828337;29;20121;-77
2021/09/10 07:47:58;;;;;;;6.35;3.67;;;;;;;16.74;70.65;92924.25;4860478;29;20098;-77
2021/09/10 07:53:46;;;;;;;6.15;3.35;;;;;;;16.87;70.02;92922.56;4838784;29;20381;-77
2021/09/10 07:56:12;;;;;;;5.13;3.40;;;;;;;16.93;68.91;92918.63;4843800;29;20053;-77
2021/09/10 07:59:00;;;;;;;5.57;3.22;;;;;;;17.03;68.62;92915.66;4825395;29;20078;-77
2021/09/10 08:01:26;;;;;;;7.85;4.30;;;;;;;17.12;69.15;92923.56;4810307;29;20094;-77
2021/09/10 08:03:51;;;;;;;7.72;4.10;;;;;;;17.20;68.55;92918.28;4841656;29;20045;-77
2021/09/10 08:06:54;;;;;;;7.47;4.22;;;;;;;17.35;67.50;92926.78;4825513;29;20058;-77
2021/09/10 08:09:20;;;;;;;5.57;3.88;;;;;;;17.44;68.62;92920.34;4845096;29;20448;-77
2021/09/10 08:11:46;;;;;;;10.15;4.30;;;;;;;17.55;68.68;92920.00;4826374;29;20129;-77
2021/09/10 08:14:31;;;;;;;8.02;4.60;;;;;;;17.67;67.55;92918.22;4827369;29;20052;-77
2021/09/10 08:16:56;;;;;;;6.13;3.53;;;;;;;17.77;66.78;92917.09;4813479;29;20050;-77
2021/09/10 08:19:22;;;;;;;6.15;3.83;;;;;;;17.99;67.13;92923.22;4813576;29;20091;-77
2021/09/10 08:25:10;;;;;;;6.43;3.85;;;;;;;18.30;66.09;92922.84;4845486;29;20125;-77
2021/09/10 08:27:37;;;;;;;9.07;4.13;;;;;;;18.34;64.88;92918.47;4846782;29;20049;-77
2021/09/10 08:30:04;;;;;;;6.15;3.58;;;;;;;18.44;63.67;92920.72;4862182;29;20049;-77
2021/09/10 08:32:30;;;;;;;6.57;4.07;;;;;;;18.47;64.39;92922.72;4863382;29;20045;-77
2021/09/10 08:34:56;;;;;;;6.97;4.22;;;;;;;18.55;64.33;92929.03;4846599;29;20515;-77
2021/09/10 08:37:40;;;;;;;6.18;3.90;;;;;;;18.64;64.06;92924.47;4843105;29;20050;-77
2021/09/10 08:40:06;;;;;;;15.18;4.72;;;;;;;18.68;64.90;92927.22;4828432;29;20046;-77
2021/09/10 08:47:01;;;;;;;6.75;3.55;;;;;;;18.64;64.93;92927.13;4837131;29;20088;-77
2021/09/10 08:49:27;;;;;;;6.07;3.90;;;;;;;18.62;65.42;92928.53;4856252;29;20066;-77
2021/09/10 08:51:53;;;;;;;6.13;3.70;;;;;;;18.65;65.65;92935.84;4861805;29;20065;-77
2021/09/10 08:57:47;;;;;;;7.60;4.80;;;;;;;18.70;66.00;92930.34;4863063;29;20420;-77
2021/09/10 09:00:14;;;;;;;6.57;3.92;;;;;;;18.79;64.87;92933.72;4846448;29;20136;-77
2021/09/10 09:03:16;;;;;;;7.00;4.05;;;;;;;18.86;64.48;92928.66;4862992;29;20045;-77
2021/09/10 09:05:42;;;;;;;;;;;;;;;18.65;64.26;92927.88;4863238;29;20552;-77
2021/09/10 09:08:10;;;;;;;6.65;4.03;;;;;;;18.59;64.33;92924.66;4862970;29;20018;-77
2021/09/10 09:10:57;;;;;;;9.27;3.95;;;;;;;18.55;64.93;92929.03;4846100;29;20102;-77
2021/09/10 09:13:28;;;;;;;6.10;4.00;;;;;;;18.61;64.60;92926.97;4862935;29;20125;-77
2021/09/10 09:19:26;;;;;;;6.43;4.50;;;;;;;18.79;65.04;92936.38;4828712;29;20057;-77
2021/09/10 09:21:58;;;;;;;8.75;4.30;;;;;;;18.93;65.18;92931.53;4862414;29;20412;-77
2021/09/10 09:27:47;;;;;;;8.38;4.65;;;;;;;19.25;62.35;92931.88;4846022;29;20053;-77
2021/09/10 09:30:13;;;;;;;7.15;4.38;;;;;;;19.34;62.52;92927.22;4846034;29;20037;-77
2021/09/10 09:36:06;;;;;;;6.60;4.07;;;;;;;19.56;59.82;92919.94;4846009;29;20045;-77
2021/09/10 09:38:37;;;;;;;9.27;4.35;;;;;;;19.59;63.42;92919.31;4846179;29;20420;-77
2021/09/10 09:44:28;;;;;;;7.53;4.22;;;;;;;19.85;58.51;92912.91;4862803;29;20135;-77
2021/09/10 09:53:47;;;;;;;5.55;3.97;;;;;;;20.24;57.03;92897.34;4862497;29;20101;-77
2021/09/10 09:59:38;;;;;;;7.97;4.22;;;;;;;21.07;57.61;92906.47;4846351;29;20140;-77
2021/09/10 10:02:04;;;;;;;4.30;3.17;;;;;;;20.48;58.91;92905.25;4860307;29;20136;-77
2021/09/10 10:04:30;;;;;;;7.03;4.10;;;;;;;20.92;58.73;92900.00;4860369;29;20050;-78
2021/09/10 10:06:56;;;;;;;6.07;3.53;;;;;;;20.76;60.11;92899.97;4861771;29;20037;-77
2021/09/10 10:13:25;;;;;;;6.05;3.70;;;;;;;20.70;58.80;92893.34;4862440;29;20038;-77
2021/09/10 10:19:45;;;;;;;11.55;4.38;;;;;;;20.74;59.20;92898.78;4862873;29;20571;-77
2021/09/10 10:26:07;;;;;;;7.63;3.90;;;;;;;21.51;57.61;92897.69;4861044;29;20040;-77
2021/09/10 10:32:30;;;;;;;7.45;4.35;;;;;;;;;;4862374;29;20101;-77
2021/09/10 10:39:08;;;;;;;6.20;3.67;;;;;;;23.63;50.19;92887.47;4863569;29;20052;-77
2021/09/10 10:41:58;;;;;;;6.28;4.10;;;;;;;22.89;53.65;92892.25;4863467;29;20077;-77
2021/09/10 10:44:29;;;;;;;11.70;4.03;;;;;;;22.35;55.35;92894.63;4863085;29;20041;-77
2021/09/10 10:47:12;;;;;;;7.15;4.05;;;;;;;22.17;54.75;92888.91;4847073;29;20519;-77
2021/09/10 10:49:47;;;;;;;6.20;3.75;;;;;;;22.04;54.33;92890.13;4835429;29;20088;-77
2021/09/10 10:52:33;;;;;;;8.07;4.40;;;;;;;21.44;56.85;92892.22;4845246;29;20053;-77
2021/09/10 10:55:19;;;;;;;13.23;4.43;;;;;;;21.49;57.96;92897.25;4830645;29;20069;-77
2021/09/10 11:02:24;;;;;;;7.07;4.25;;;;;;;21.23;55.51;92893.16;4862607;29;20595;-77
2021/09/10 11:05:41;;;;;;;5.55;3.40;;;;;;;21.12;56.33;92894.78;4837238;29;20062;-77
2021/09/10 11:08:07;;;;;;;11.80;4.45;;;;;;;20.63;57.46;92889.72;4821328;29;20058;-77
2021/09/10 11:10:33;;;;;;;6.00;3.65;;;;;;;20.83;57.98;92886.09;4807651;29;20042;-77
2021/09/10 11:16:29;;;;;;;7.38;4.63;;;;;;;20.95;58.03;92888.69;4823460;29;20494;-77
2021/09/10 11:18:55;;;;;;;7.15;4.03;;;;;;;21.08;57.33;92891.28;4823501;29;20425;-77
2021/09/10 11:25:14;;;;;;;6.68;3.60;;;;;;;21.07;59.08;92884.41;4823866;29;20117;-77
2021/09/10 11:31:25;;;;;;;6.25;3.97;;;;;;;22.11;54.63;92874.31;4823610;29;20133;-77
2021/09/10 11:33:51;;;;;;;5.10;3.28;;;;;;;22.24;55.21;92880.31;4809774;29;20046;-77
2021/09/10 11:36:24;;;;;;;7.15;4.22;;;;;;;22.10;56.23;92883.41;4835640;29;20126;-77
2021/09/10 11:42:44;;;;;;;6.20;3.90;;;;;;;21.93;54.95;92881.94;4848450;29;20074;-77
2021/09/10 11:45:13;;;;;;;7.30;4.72;;;;;;;21.51;54.67;92882.47;4833166;29;20053;-77
2021/09/10 11:47:41;;;;;;;7.78;4.57;;;;;;;21.78;54.67;92880.81;4839923;29;20042;-77
2021/09/10 11:50:11;;;;;;;7.03;3.80;;;;;;;22.08;54.66;92885.66;4852458;29;20057;-77
2021/09/10 11:56:33;;;;;;;6.72;4.05;;;;;;;22.82;49.51;92874.22;4867077;29;20510;-76
2021/09/10 12:02:27;;;;;;;5.78;3.72;;;;;;;23.25;44.96;92869.66;4847791;29;20103;-77
2021/09/10 12:04:56;;;;;;;8.25;4.30;;;;;;;23.56;45.32;92865.22;4829477;29;20065;-78
2021/09/10 12:07:30;;;;;;;7.90;4.45;;;;;;;23.19;52.16;92863.06;4847077;29;20078;-78
2021/09/10 12:09:57;;;;;;;8.35;4.50;;;;;;;22.05;54.10;92867.72;4848355;29;20046;-77
2021/09/10 12:12:24;;;;;;;8.07;3.90;;;;;;;22.40;54.55;92869.59;4847505;29;20378;-77
2021/09/10 12:18:20;;;;;;;7.22;4.30;;;;;;;21.39;57.06;92877.19;4830094;29;20615;-77
2021/09/10 12:20:53;;;;;;;7.60;4.60;;;;;;;21.30;58.07;92877.41;4830685;29;20058;-77
2021/09/10 12:23:21;;;;;;;4.55;3.08;;;;;;;20.68;56.04;92884.94;4845959;29;20110;-77
2021/09/10 12:26:00;;;;;;;8.77;4.15;;;;;;;20.53;56.56;92878.41;4829676;29;20053;-77
2021/09/10 12:28:31;;;;;;;6.28;3.63;;;;;;;20.71;57.25;92880.81;4864517;29;20080;-77
2021/09/10 12:31:09;;;;;;;6.88;4.15;;;;;;;21.20;58.24;92883.22;4832419;29;20097;-77
2021/09/10 12:33:38;;;;;;;7.03;4.40;;;;;;;21.29;56.67;92880.41;4864996;29;20416;-77
2021/09/10 12:36:08;;;;;;;7.93;4.97;;;;;;;20.95;58.11;92883.34;4864449;29;20034;-77
2021/09/10 12:38:57;;;;;;;6.90;4.40;;;;;;;20.91;57.98;92882.50;4865478;29;20049;-77
2021/09/10 12:41:23;;;;;;;5.97;3.70;;;;;;;21.09;58.45;92882.94;4850180;29;20066;-77
2021/09/10 12:47:45;;;;;;;11.25;5.05;;;;;;;20.89;55.80;92879.38;4850182;29;20075;-77
2021/09/10 12:58:09;;;;;;;7.47;4.38;;;;;;;20.51;62.11;92883.31;4859917;29;20061;-78
2021/09/10 13:00:37;;;;;;;9.57;4.88;;;;;;;20.39;61.44;92886.00;4853432;29;20053;-79
2021/09/10 13:03:06;;;;;;;6.55;4.10;;;;;;;20.49;61.29;92885.53;4844101;29;20053;-79
2021/09/10 13:05:33;;;;;;;7.47;4.10;;;;;;;20.62;61.21;92885.50;4845305;29;20608;-78
2021/09/10 13:08:00;;;;;;;5.93;4.18;;;;;;;20.69;60.88;92891.81;4856232;29;20046;-78
2021/09/10 13:10:26;;;;;;;7.85;4.25;;;;;;;20.66;61.17;92886.38;4846031;29;20042;-78
2021/09/10 13:12:54;;;;;;;6.65;4.35;;;;;;;20.90;59.89;92885.50;4843562;29;20501;-78
2021/09/10 13:15:22;;;;;;;8.00;3.97;;;;;;;20.99;58.21;92876.25;4812530;29;20137;-78
2021/09/10 13:17:48;;;;;;;7.65;3.92;;;;;;;21.08;57.75;92872.66;4850686;29;20050;-77
2021/09/10 13:20:14;;;;;;;7.95;4.50;;;;;;;20.79;58.67;92880.66;4843315;29;20042;-77
2021/09/10 13:22:40;;;;;;;6.90;3.95;;;;;;;20.96;58.71;92873.47;4833899;29;20064;-78
2021/09/10 13:25:07;;;;;;;6.60;3.47;;;;;;;21.13;57.38;92872.41;4851887;29;20044;-78
2021/09/10 13:27:33;;;;;;;7.55;3.75;;;;;;;21.07;56.77;92868.44;4862183;29;20042;-78
2021/09/10 13:29:59;;;;;;;8.68;4.03;;;;;;;21.14;55.29;92879.25;4861707;29;20595;-77
2021/09/10 13:32:26;;;;;;;7.90;4.28;;;;;;;20.89;54.06;92879.38;4861500;29;20385;-77
2021/09/10 13:34:54;;;;;;;8.85;4.13;;;;;;;21.23;53.23;92866.56;4845056;29;20052;-77
2021/09/10 13:37:21;;;;;;;6.80;4.28;;;;;;;21.26;50.99;92871.22;4861434;29;20680;-77
2021/09/10 13:43:11;;;;;;;7.57;4.47;;;;;;;21.65;49.81;92859.97;4852335;29;20050;-77
2021/09/10 13:45:36;;;;;;;7.00;4.72;;;;;;;21.74;50.03;92866.66;4865927;29;20054;-78
2021/09/10 13:48:03;;;;;;;7.28;4.25;;;;;;;21.85;52.09;92863.47;4865388;29;20069;-76
2021/09/10 13:50:30;;;;;;;6.03;3.75;;;;;;;21.52;53.74;92857.38;4848729;29;20077;-77
2021/09/10 13:52:57;;;;;;;6.90;4.13;;;;;;;21.65;52.31;92859.97;4865901;29;20086;-78
2021/09/10 13:55:24;;;;;;;9.60;4.55;;;;;;;21.76;50.19;92861.75;4848567;29;20046;-77
2021/09/10 13:57:50;;;;;;;12.70;5.35;;;;;;;21.47;52.00;92867.53;4862247;29;20136;-76
2021/09/10 14:00:17;;;;;;;6.43;3.95;;;;;;;21.41;53.46;92867.81;4855134;29;20058;-77
2021/09/10 14:02:44;;;;;;;7.93;4.50;;;;;;;21.11;54.27;92867.41;4851438;29;21519;-77
2021/09/10 14:05:12;;;;;;;7.40;4.00;;;;;;;20.87;56.00;92865.66;4856103;29;20408;-77
2021/09/10 14:07:38;;;;;;;7.10;4.40;;;;;;;20.94;56.47;92865.06;4860442;29;20045;-77
2021/09/10 14:10:06;;;;;;;8.05;4.35;;;;;;;20.88;56.19;92864.56;4846132;29;20049;-77
2021/09/10 14:12:33;;;;;;;7.65;4.32;;;;;;;20.62;56.04;92866.88;4828467;29;20084;-77
2021/09/10 14:14:58;;;;;;;7.65;4.47;;;;;;;20.54;56.05;92860.59;4861137;29;20060;-77
2021/09/10 14:17:24;;;;;;;10.15;4.85;;;;;;;20.80;55.15;92865.47;4854495;29;20065;-77
2021/09/10 14:19:51;;;;;;;7.65;5.15;;;;;;;20.87;54.87;92862.22;4862156;29;20560;-77
2021/09/10 14:22:17;;;;;;;6.47;3.88;;;;;;;20.38;56.80;92863.19;4860594;29;20049;-78
2021/09/10 14:24:45;;;;;;;8.18;4.45;;;;;;;20.36;56.86;92866.19;4829434;29;20045;-78
2021/09/10 14:27:12;;;;;;;9.45;5.18;;;;;;;20.51;57.32;92870.03;4842539;29;20062;-77
2021/09/10 14:29:38;;;;;;;8.30;5.05;;;;;;;20.24;57.45;92871.56;4852756;29;20046;-77
2021/09/10 14:32:04;;;;;;;9.30;4.95;;;;;;;20.44;57.14;92869.81;4844542;29;20161;-77
2021/09/10 14:34:32;;;;;;;9.45;5.10;;;;;;;20.55;57.69;92870.09;4846913;29;20403;-76
2021/09/10 14:36:58;;;;;;;9.48;5.60;;;;;;;20.61;56.23;92863.47;4860700;29;20050;-77
2021/09/10 14:39:25;;;;;;;10.15;5.07;;;;;;;20.46;56.82;92867.59;4845684;29;20056;-77
2021/09/10 14:41:50;;;;;;;7.68;4.78;;;;;;;20.38;56.96;92857.88;4843295;29;20045;-77
2021/09/10 14:44:16;;;;;;;8.55;4.53;;;;;;;20.28;57.35;92866.31;4860476;29;20060;-77
2021/09/10 14:46:42;;;;;;;7.30;4.53;;;;;;;20.30;57.90;92869.41;4857655;29;20041;-77
2021/09/10 14:49:07;;;;;;;8.23;5.00;;;;;;;20.24;57.43;92865.44;4849248;29;20049;-76
2021/09/10 14:51:33;;;;;;;8.25;5.18;;;;;;;20.10;57.11;92866.56;4851164;29;20053;-77
2021/09/10 14:53:59;;;;;;;7.32;4.18;;;;;;;20.17;57.08;92871.31;4852468;29;20055;-77
2021/09/10 14:56:24;;;;;;;11.75;5.20;;;;;;;20.13;56.50;92870.47;4854062;29;20404;-76
2021/09/10 14:59:05;;;;;;;7.47;4.75;;;;;;;20.09;57.04;92859.72;4852373;29;20078;-77
2021/09/10 15:01:33;;;;;;;8.15;4.95;;;;;;;20.11;56.89;92862.81;4839595;29;20561;-77
2021/09/10 15:03:59;;;;;;;14.32;4.93;;;;;;;20.06;57.58;92867.59;4855027;29;20409;-77
2021/09/10 15:06:25;;;;;;;8.02;4.78;;;;;;;19.86;57.42;92872.72;4859137;29;20060;-77
2021/09/10 15:08:50;;;;;;;9.70;4.80;;;;;;;19.93;56.67;92864.97;4842202;29;20182;-77
2021/09/10 15:11:17;;;;;;;13.75;5.70;;;;;;;19.87;57.28;92868.19;4858323;29;20397;-76
2021/09/10 15:13:43;;;;;;;8.75;4.82;;;;;;;19.82;56.59;92865.75;4858293;29;20037;-77
2021/09/10 15:16:09;;;;;;;8.35;4.88;;;;;;;19.85;56.76;92870.41;4827064;29;20152;-77
2021/09/10 15:18:37;;;;;;;8.15;5.10;;;;;;;19.85;57.49;92876.47;4846206;29;20132;-76
2021/09/10 15:21:03;;;;;;;7.68;4.60;;;;;;;19.94;56.52;92873.69;4865099;29;20324;-76
2021/09/10 15:23:29;;;;;;;11.73;5.75;;;;;;;19.92;57.30;92871.38;4847837;29;20536;-75
2021/09/10 15:25:55;;;;;;;9.18;4.80;;;;;;;19.93;57.49;92869.50;4864811;29;20420;-77
2021/09/10 15:28:21;;;;;;;7.22;4.70;;;;;;;20.05;56.79;92869.47;4878068;29;20085;-76
2021/09/10 15:30:47;;;;;;;7.50;4.28;;;;;;;19.92;57.01;92854.66;4866433;29;20085;-77
2021/09/10 15:33:12;;;;;;;7.22;4.80;;;;;;;19.99;56.56;92870.81;4873812;29;20093;-76
2021/09/10 15:35:38;;;;;;;7.20;5.22;;;;;;;20.02;56.79;92870.16;4883004;29;20049;-76
2021/09/10 15:38:06;;;;;;;8.98;5.70;;;;;;;20.04;56.46;92873.25;4866225;29;20072;-76
2021/09/10 15:40:33;;;;;;;11.13;5.10;;;;;;;20.10;57.51;92871.88;4883310;29;20044;-76
2021/09/10 15:42:59;;;;;;;9.75;5.05;;;;;;;20.18;57.96;92863.03;4883023;29;20100;-76
2021/09/10 15:45:25;;;;;;;7.25;4.50;;;;;;;20.39;57.29;92867.38;4883169;29;20499;-76
2021/09/10 15:47:52;;;;;;;8.93;4.78;;;;;;;20.43;56.76;92865.59;4883396;29;20119;-76
2021/09/10 15:50:18;;;;;;;7.93;4.90;;;;;;;20.51;56.69;92864.69;4882999;29;20452;-76
2021/09/10 15:52:44;;;;;;;7.97;4.05;;;;;;;20.49;56.82;92863.47;4861481;29;20126;-76
2021/09/10 15:55:14;;;;;;;10.95;5.00;;;;;;;20.43;55.92;92854.97;4864727;29;20469;-76
2021/09/10 15:57:43;;;;;;;9.48;5.20;;;;;;;20.27;56.62;92862.13;4863301;29;20469;-77
2021/09/10 16:00:10;;;;;;;7.60;4.55;;;;;;;20.42;56.52;92858.72;4852277;29;20048;-77
2021/09/10 16:02:40;;;;;;;8.93;4.65;;;;;;;20.52;55.36;92866.22;4869419;29;20057;-79
2021/09/10 16:05:06;;;;;;;7.75;4.45;;;;;;;20.84;56.01;92861.03;4869829;29;20079;-78
2021/09/10 16:07:32;;;;;;;8.38;4.25;;;;;;;21.08;53.65;92856.69;4868814;29;20120;-77
2021/09/10 16:09:58;;;;;;;12.20;5.18;;;;;;;20.80;54.91;92854.81;4868317;29;20089;-76
2021/09/10 16:12:27;;;;;;;8.23;4.43;;;;;;;20.64;54.93;92846.81;4843765;29;20045;-77
2021/09/10 16:14:54;;;;;;;8.43;4.72;;;;;;;20.68;56.10;92855.66;4851943;29;20154;-77
2021/09/10 16:17:24;;;;;;;7.32;4.50;;;;;;;20.77;55.73;92855.53;4851688;29;20071;-78
2021/09/10 16:19:50;;;;;;;7.45;4.38;;;;;;;20.56;56.05;92858.38;4868358;29;20053;-78
2021/09/10 16:22:17;;;;;;;12.02;4.68;;;;;;;20.47;55.98;92850.53;4860719;29;20390;-78
2021/09/10 16:24:43;;;;;;;7.85;5.20;;;;;;;20.32;57.08;92845.94;4846534;29;20066;-77
2021/09/10 16:27:08;;;;;;;10.27;5.22;;;;;;;20.19;56.88;92850.50;4841482;29;20037;-77
2021/09/10 16:29:34;;;;;;;9.43;4.97;;;;;;;20.15;57.84;92841.66;4848756;29;20687;-77
2021/09/10 16:32:00;;;;;;;9.70;5.38;;;;;;;19.72;59.20;92835.09;4852884;29;20415;-77